Impacts METAR Board
IDs:

KCNW - Waco/Texas State Tec, TX, US

Updated at: 2300 UTC 29 May 2020
Potential Impact None Slight Moderate High
Time 29/11Z 29/12Z 29/13Z 29/14Z 29/15Z 29/16Z 29/17Z 29/18Z 29/19Z 29/20Z 29/21Z 29/22Z 29/23Z
Temp 66 68 72 77 77 82 84 86 86 86 86 86
Dewpt 64 64 64 64 64 63 59 55 57 55 54 55
Altim 30.11 30.12 30.13 30.14 30.13 30.13 30.13 30.12 30.12 30.12 30.11 30.10
VIS 10 10 10 10 10 10 10 10 10 10 10 10
CIG -- -- -- -- -- -- -- -- -- -- -- --
CoverSKCSKCSKCSKCSKCSKCSKCSKCSKCSKCSKCSKC
FltCatVFRVFRVFRVFRVFRVFRVFRVFRVFRVFRVFRVFR
WX------------------------
WDir360360204010350302030202040
WSpd 6 6 8 9 9 10 8 9 10 6 8 8
WGst -- -- -- -- 14 -- 16 16 -- 15 -- --
Raw hourly METARs

KCNW 291155Z 36006KT 10SM SKC 19/18 A3011
KCNW 291255Z 36006KT 10SM SKC 20/18 A3012
KCNW 291355Z 02008KT 10SM SKC 22/18 A3013
KCNW 291455Z 04009KT 10SM SKC 25/18 A3014
KCNW 291555Z 01009G14KT 10SM SKC 25/18 A3013
KCNW 291645Z 35010KT 10SM SKC 28/17 A3013
KCNW 291755Z 03008G16KT 10SM SKC 29/15 A3013
KCNW 291855Z 02009G16KT 10SM SKC 30/13 A3012
KCNW 291955Z 03010KT 10SM SKC 30/14 A3012
KCNW 292055Z 02006G15KT 10SM SKC 30/13 A3012
KCNW 292155Z 02008KT 10SM SKC 30/12 A3011
KCNW 292255Z 04008KT 10SM SKC 30/13 A3010